sensor_id;sensor_type;location;lat;lon;timestamp;P1;durP1;ratioP1;P2;durP2;ratioP2
3881;SDS011;1956;53.482;10.238;2022-11-03T00:01:34;9.50;;;4.03;;
3881;SDS011;1956;53.482;10.238;2022-11-03T00:06:39;14.00;;;4.50;;
3881;SDS011;1956;53.482;10.238;2022-11-03T00:11:41;18.27;;;6.73;;
3881;SDS011;1956;53.482;10.238;2022-11-03T00:16:42;9.47;;;4.30;;
3881;SDS011;1956;53.482;10.238;2022-11-03T00:21:43;12.97;;;4.60;;
3881;SDS011;1956;53.482;10.238;2022-11-03T00:26:44;15.23;;;4.60;;
3881;SDS011;1956;53.482;10.238;2022-11-03T00:31:44;10.33;;;4.33;;
3881;SDS011;1956;53.482;10.238;2022-11-03T00:36:45;9.10;;;4.40;;
3881;SDS011;1956;53.482;10.238;2022-11-03T00:41:45;9.00;;;4.57;;
3881;SDS011;1956;53.482;10.238;2022-11-03T00:46:45;13.53;;;4.20;;
3881;SDS011;1956;53.482;10.238;2022-11-03T00:51:46;7.67;;;4.00;;
3881;SDS011;1956;53.482;10.238;2022-11-03T00:56:46;12.23;;;5.60;;
3881;SDS011;1956;53.482;10.238;2022-11-03T01:01:46;6.70;;;3.97;;
3881;SDS011;1956;53.482;10.238;2022-11-03T01:06:48;15.53;;;5.10;;
3881;SDS011;1956;53.482;10.238;2022-11-03T01:12:06;13.87;;;4.30;;
3881;SDS011;1956;53.482;10.238;2022-11-03T01:17:16;19.03;;;5.83;;
3881;SDS011;1956;53.482;10.238;2022-11-03T01:22:19;10.57;;;4.30;;
3881;SDS011;1956;53.482;10.238;2022-11-03T01:27:20;9.00;;;4.13;;
3881;SDS011;1956;53.482;10.238;2022-11-03T01:32:23;18.70;;;4.87;;
3881;SDS011;1956;53.482;10.238;2022-11-03T01:37:24;14.77;;;4.03;;
3881;SDS011;1956;53.482;10.238;2022-11-03T01:42:25;11.77;;;4.13;;
3881;SDS011;1956;53.482;10.238;2022-11-03T01:47:29;13.43;;;4.10;;
3881;SDS011;1956;53.482;10.238;2022-11-03T01:52:33;7.40;;;4.00;;
3881;SDS011;1956;53.482;10.238;2022-11-03T01:57:41;12.13;;;4.43;;
3881;SDS011;1956;53.482;10.238;2022-11-03T02:02:44;14.60;;;5.03;;
3881;SDS011;1956;53.482;10.238;2022-11-03T02:13:18;9.70;;;3.67;;
3881;SDS011;1956;53.482;10.238;2022-11-03T02:18:27;17.20;;;3.77;;
3881;SDS011;1956;53.482;10.238;2022-11-03T02:23:33;22.43;;;4.37;;
3881;SDS011;1956;53.482;10.238;2022-11-03T02:28:39;10.70;;;4.20;;
3881;SDS011;1956;53.482;10.238;2022-11-03T02:33:53;21.80;;;4.13;;
3881;SDS011;1956;53.482;10.238;2022-11-03T02:39:00;8.60;;;4.40;;
3881;SDS011;1956;53.482;10.238;2022-11-03T02:44:05;7.80;;;3.10;;
3881;SDS011;1956;53.482;10.238;2022-11-03T02:49:07;17.23;;;4.17;;
3881;SDS011;1956;53.482;10.238;2022-11-03T02:54:12;10.10;;;4.00;;
3881;SDS011;1956;53.482;10.238;2022-11-03T02:59:17;11.83;;;3.87;;
3881;SDS011;1956;53.482;10.238;2022-11-03T03:04:27;10.30;;;3.77;;
3881;SDS011;1956;53.482;10.238;2022-11-03T03:09:31;9.50;;;4.13;;
3881;SDS011;1956;53.482;10.238;2022-11-03T03:14:37;13.53;;;4.20;;
3881;SDS011;1956;53.482;10.238;2022-11-03T03:25:10;10.10;;;3.90;;
3881;SDS011;1956;53.482;10.238;2022-11-03T03:30:14;14.63;;;3.67;;
3881;SDS011;1956;53.482;10.238;2022-11-03T03:35:18;11.30;;;4.17;;
3881;SDS011;1956;53.482;10.238;2022-11-03T03:40:23;16.23;;;4.10;;
3881;SDS011;1956;53.482;10.238;2022-11-03T03:45:25;13.13;;;3.83;;
3881;SDS011;1956;53.482;10.238;2022-11-03T03:50:26;10.67;;;3.57;;
3881;SDS011;1956;53.482;10.238;2022-11-03T03:55:36;14.57;;;3.77;;
3881;SDS011;1956;53.482;10.238;2022-11-03T04:00:39;6.57;;;3.60;;
3881;SDS011;1956;53.482;10.238;2022-11-03T04:05:41;11.23;;;3.60;;
3881;SDS011;1956;53.482;10.238;2022-11-03T04:10:42;7.83;;;3.87;;
3881;SDS011;1956;53.482;10.238;2022-11-03T04:16:02;13.87;;;3.30;;
3881;SDS011;1956;53.482;10.238;2022-11-03T04:21:21;14.50;;;4.20;;
3881;SDS011;1956;53.482;10.238;2022-11-03T04:26:39;7.90;;;3.40;;
3881;SDS011;1956;53.482;10.238;2022-11-03T04:31:40;13.43;;;4.40;;
3881;SDS011;1956;53.482;10.238;2022-11-03T04:36:40;9.70;;;3.70;;
3881;SDS011;1956;53.482;10.238;2022-11-03T04:41:40;12.30;;;3.77;;
3881;SDS011;1956;53.482;10.238;2022-11-03T04:46:41;7.77;;;3.73;;
3881;SDS011;1956;53.482;10.238;2022-11-03T04:51:42;15.43;;;3.57;;
3881;SDS011;1956;53.482;10.238;2022-11-03T04:56:43;6.63;;;3.10;;
3881;SDS011;1956;53.482;10.238;2022-11-03T05:01:43;11.80;;;3.67;;
3881;SDS011;1956;53.482;10.238;2022-11-03T05:06:47;8.77;;;3.83;;
3881;SDS011;1956;53.482;10.238;2022-11-03T05:11:50;7.80;;;3.37;;
3881;SDS011;1956;53.482;10.238;2022-11-03T05:16:51;7.03;;;3.73;;
3881;SDS011;1956;53.482;10.238;2022-11-03T05:21:53;10.10;;;3.60;;
3881;SDS011;1956;53.482;10.238;2022-11-03T05:26:56;9.93;;;3.93;;
3881;SDS011;1956;53.482;10.238;2022-11-03T05:31:57;10.63;;;3.33;;
3881;SDS011;1956;53.482;10.238;2022-11-03T05:37:07;9.10;;;3.70;;
3881;SDS011;1956;53.482;10.238;2022-11-03T05:42:36;32.23;;;6.27;;
3881;SDS011;1956;53.482;10.238;2022-11-03T05:47:39;10.10;;;3.70;;
3881;SDS011;1956;53.482;10.238;2022-11-03T05:52:40;10.43;;;3.30;;
3881;SDS011;1956;53.482;10.238;2022-11-03T05:57:40;9.93;;;3.87;;
3881;SDS011;1956;53.482;10.238;2022-11-03T06:02:40;12.63;;;3.90;;
3881;SDS011;1956;53.482;10.238;2022-11-03T06:07:42;12.90;;;4.10;;
3881;SDS011;1956;53.482;10.238;2022-11-03T06:12:42;11.17;;;3.60;;
3881;SDS011;1956;53.482;10.238;2022-11-03T06:17:43;4.43;;;3.13;;
3881;SDS011;1956;53.482;10.238;2022-11-03T06:22:43;18.07;;;4.10;;
3881;SDS011;1956;53.482;10.238;2022-11-03T06:27:44;7.57;;;3.37;;
3881;SDS011;1956;53.482;10.238;2022-11-03T06:32:45;9.83;;;3.83;;
3881;SDS011;1956;53.482;10.238;2022-11-03T06:37:48;8.03;;;3.50;;
3881;SDS011;1956;53.482;10.238;2022-11-03T06:42:51;12.83;;;4.37;;
3881;SDS011;1956;53.482;10.238;2022-11-03T06:47:52;21.70;;;4.07;;
3881;SDS011;1956;53.482;10.238;2022-11-03T06:52:53;30.33;;;4.60;;
3881;SDS011;1956;53.482;10.238;2022-11-03T06:57:59;10.63;;;4.10;;
3881;SDS011;1956;53.482;10.238;2022-11-03T07:03:09;13.63;;;3.97;;
3881;SDS011;1956;53.482;10.238;2022-11-03T07:08:22;11.60;;;4.37;;
3881;SDS011;1956;53.482;10.238;2022-11-03T07:13:24;13.87;;;3.37;;
3881;SDS011;1956;53.482;10.238;2022-11-03T07:18:34;12.00;;;4.80;;
3881;SDS011;1956;53.482;10.238;2022-11-03T07:23:38;20.80;;;3.50;;
3881;SDS011;1956;53.482;10.238;2022-11-03T07:28:39;24.87;;;4.30;;
3881;SDS011;1956;53.482;10.238;2022-11-03T07:33:39;20.80;;;4.17;;
3881;SDS011;1956;53.482;10.238;2022-11-03T07:38:40;9.13;;;3.77;;
3881;SDS011;1956;53.482;10.238;2022-11-03T07:43:42;12.53;;;4.43;;
3881;SDS011;1956;53.482;10.238;2022-11-03T07:48:50;10.77;;;3.60;;
3881;SDS011;1956;53.482;10.238;2022-11-03T07:53:59;23.20;;;6.30;;
3881;SDS011;1956;53.482;10.238;2022-11-03T07:59:32;13.70;;;6.40;;
3881;SDS011;1956;53.482;10.238;2022-11-03T08:04:34;19.33;;;4.33;;
3881;SDS011;1956;53.482;10.238;2022-11-03T08:09:34;16.27;;;4.00;;
3881;SDS011;1956;53.482;10.238;2022-11-03T08:14:35;12.73;;;4.87;;
3881;SDS011;1956;53.482;10.238;2022-11-03T08:19:36;11.93;;;3.80;;
3881;SDS011;1956;53.482;10.238;2022-11-03T08:24:37;14.83;;;3.43;;
3881;SDS011;1956;53.482;10.238;2022-11-03T08:29:37;6.90;;;3.10;;
3881;SDS011;1956;53.482;10.238;2022-11-03T08:34:38;9.13;;;3.47;;
3881;SDS011;1956;53.482;10.238;2022-11-03T08:39:38;6.80;;;3.27;;
3881;SDS011;1956;53.482;10.238;2022-11-03T08:44:38;17.37;;;3.10;;
3881;SDS011;1956;53.482;10.238;2022-11-03T08:49:39;9.70;;;3.57;;
3881;SDS011;1956;53.482;10.238;2022-11-03T08:54:39;22.30;;;3.63;;
3881;SDS011;1956;53.482;10.238;2022-11-03T08:59:39;15.47;;;3.90;;
3881;SDS011;1956;53.482;10.238;2022-11-03T09:04:40;9.37;;;3.10;;
3881;SDS011;1956;53.482;10.238;2022-11-03T09:09:40;6.27;;;2.60;;
3881;SDS011;1956;53.482;10.238;2022-11-03T09:14:41;9.37;;;2.80;;
3881;SDS011;1956;53.482;10.238;2022-11-03T09:19:41;6.23;;;2.50;;
3881;SDS011;1956;53.482;10.238;2022-11-03T09:24:42;12.83;;;3.00;;
3881;SDS011;1956;53.482;10.238;2022-11-03T09:29:43;9.87;;;2.50;;
3881;SDS011;1956;53.482;10.238;2022-11-03T09:34:43;6.77;;;2.20;;
3881;SDS011;1956;53.482;10.238;2022-11-03T09:39:43;12.50;;;2.77;;
3881;SDS011;1956;53.482;10.238;2022-11-03T09:44:44;8.93;;;2.43;;
3881;SDS011;1956;53.482;10.238;2022-11-03T09:49:45;10.27;;;2.60;;
3881;SDS011;1956;53.482;10.238;2022-11-03T09:54:46;7.00;;;2.30;;
3881;SDS011;1956;53.482;10.238;2022-11-03T09:59:47;11.10;;;2.80;;
3881;SDS011;1956;53.482;10.238;2022-11-03T10:04:48;23.33;;;2.90;;
3881;SDS011;1956;53.482;10.238;2022-11-03T10:09:50;7.30;;;2.60;;
3881;SDS011;1956;53.482;10.238;2022-11-03T10:14:51;8.83;;;3.17;;
3881;SDS011;1956;53.482;10.238;2022-11-03T10:19:52;6.60;;;2.50;;
3881;SDS011;1956;53.482;10.238;2022-11-03T10:30:27;5.23;;;2.20;;
3881;SDS011;1956;53.482;10.238;2022-11-03T10:35:31;8.87;;;2.00;;
3881;SDS011;1956;53.482;10.238;2022-11-03T10:40:33;6.80;;;1.87;;
3881;SDS011;1956;53.482;10.238;2022-11-03T10:45:35;7.10;;;1.90;;
3881;SDS011;1956;53.482;10.238;2022-11-03T10:50:36;7.37;;;2.53;;
3881;SDS011;1956;53.482;10.238;2022-11-03T10:55:38;10.60;;;2.90;;
3881;SDS011;1956;53.482;10.238;2022-11-03T11:00:40;14.10;;;2.43;;
3881;SDS011;1956;53.482;10.238;2022-11-03T11:05:45;8.33;;;2.77;;
3881;SDS011;1956;53.482;10.238;2022-11-03T11:10:46;8.60;;;1.97;;
3881;SDS011;1956;53.482;10.238;2022-11-03T11:15:51;9.80;;;2.80;;
3881;SDS011;1956;53.482;10.238;2022-11-03T11:26:29;6.23;;;2.43;;
3881;SDS011;1956;53.482;10.238;2022-11-03T11:31:31;13.27;;;2.40;;
3881;SDS011;1956;53.482;10.238;2022-11-03T11:36:32;8.27;;;1.80;;
3881;SDS011;1956;53.482;10.238;2022-11-03T11:58:46;9.93;;;2.00;;
3881;SDS011;1956;53.482;10.238;2022-11-03T12:03:45;8.73;;;1.93;;
3881;SDS011;1956;53.482;10.238;2022-11-03T12:08:46;5.10;;;1.70;;
3881;SDS011;1956;53.482;10.238;2022-11-03T12:13:47;8.53;;;2.37;;
3881;SDS011;1956;53.482;10.238;2022-11-03T12:18:50;6.10;;;2.23;;
3881;SDS011;1956;53.482;10.238;2022-11-03T12:23:51;11.57;;;1.83;;
3881;SDS011;1956;53.482;10.238;2022-11-03T12:28:52;5.17;;;1.90;;
3881;SDS011;1956;53.482;10.238;2022-11-03T12:33:52;8.33;;;1.90;;
3881;SDS011;1956;53.482;10.238;2022-11-03T12:38:52;4.00;;;1.80;;
3881;SDS011;1956;53.482;10.238;2022-11-03T12:43:53;3.60;;;2.13;;
3881;SDS011;1956;53.482;10.238;2022-11-03T12:48:56;6.73;;;2.30;;
3881;SDS011;1956;53.482;10.238;2022-11-03T12:53:56;8.67;;;2.30;;
3881;SDS011;1956;53.482;10.238;2022-11-03T12:58:57;4.93;;;2.17;;
3881;SDS011;1956;53.482;10.238;2022-11-03T13:03:57;9.83;;;2.20;;
3881;SDS011;1956;53.482;10.238;2022-11-03T13:08:58;7.07;;;2.00;;
3881;SDS011;1956;53.482;10.238;2022-11-03T13:13:58;16.57;;;2.50;;
3881;SDS011;1956;53.482;10.238;2022-11-03T13:18:59;7.73;;;2.03;;
3881;SDS011;1956;53.482;10.238;2022-11-03T13:23:59;6.47;;;2.10;;
3881;SDS011;1956;53.482;10.238;2022-11-03T13:28:59;6.80;;;1.80;;
3881;SDS011;1956;53.482;10.238;2022-11-03T13:34:00;14.77;;;2.00;;
3881;SDS011;1956;53.482;10.238;2022-11-03T13:39:00;6.03;;;2.17;;
3881;SDS011;1956;53.482;10.238;2022-11-03T13:44:01;9.33;;;2.37;;
3881;SDS011;1956;53.482;10.238;2022-11-03T13:49:01;6.80;;;2.07;;
3881;SDS011;1956;53.482;10.238;2022-11-03T13:54:02;5.00;;;1.90;;
3881;SDS011;1956;53.482;10.238;2022-11-03T13:59:02;14.33;;;2.10;;
3881;SDS011;1956;53.482;10.238;2022-11-03T14:04:03;8.30;;;2.13;;
3881;SDS011;1956;53.482;10.238;2022-11-03T14:09:03;7.23;;;3.10;;
3881;SDS011;1956;53.482;10.238;2022-11-03T14:14:04;15.00;;;2.53;;
3881;SDS011;1956;53.482;10.238;2022-11-03T14:19:04;8.53;;;2.57;;
3881;SDS011;1956;53.482;10.238;2022-11-03T14:24:05;9.13;;;2.17;;
3881;SDS011;1956;53.482;10.238;2022-11-03T14:29:05;5.57;;;1.83;;
3881;SDS011;1956;53.482;10.238;2022-11-03T14:34:06;4.87;;;2.40;;
3881;SDS011;1956;53.482;10.238;2022-11-03T14:39:06;5.10;;;2.30;;
3881;SDS011;1956;53.482;10.238;2022-11-03T14:44:06;7.30;;;2.70;;
3881;SDS011;1956;53.482;10.238;2022-11-03T14:49:07;6.63;;;2.60;;
3881;SDS011;1956;53.482;10.238;2022-11-03T14:54:08;7.23;;;2.30;;
3881;SDS011;1956;53.482;10.238;2022-11-03T14:59:08;8.40;;;2.50;;
3881;SDS011;1956;53.482;10.238;2022-11-03T15:04:08;5.13;;;2.03;;
3881;SDS011;1956;53.482;10.238;2022-11-03T15:09:09;7.97;;;2.90;;
3881;SDS011;1956;53.482;10.238;2022-11-03T15:14:09;5.50;;;2.37;;
3881;SDS011;1956;53.482;10.238;2022-11-03T15:19:10;10.33;;;2.40;;
3881;SDS011;1956;53.482;10.238;2022-11-03T15:24:11;7.87;;;2.60;;
3881;SDS011;1956;53.482;10.238;2022-11-03T15:29:11;7.70;;;2.30;;
3881;SDS011;1956;53.482;10.238;2022-11-03T15:34:12;14.30;;;3.13;;
3881;SDS011;1956;53.482;10.238;2022-11-03T15:39:12;7.50;;;3.03;;
3881;SDS011;1956;53.482;10.238;2022-11-03T15:44:12;12.70;;;3.30;;
3881;SDS011;1956;53.482;10.238;2022-11-03T15:49:13;11.53;;;3.50;;
3881;SDS011;1956;53.482;10.238;2022-11-03T15:54:13;11.13;;;3.23;;
3881;SDS011;1956;53.482;10.238;2022-11-03T15:59:13;11.20;;;3.00;;
3881;SDS011;1956;53.482;10.238;2022-11-03T16:04:14;8.37;;;3.10;;
3881;SDS011;1956;53.482;10.238;2022-11-03T16:09:15;6.03;;;2.53;;
3881;SDS011;1956;53.482;10.238;2022-11-03T16:14:15;9.53;;;3.07;;
3881;SDS011;1956;53.482;10.238;2022-11-03T16:19:15;7.10;;;2.70;;
3881;SDS011;1956;53.482;10.238;2022-11-03T16:24:16;5.87;;;3.00;;
3881;SDS011;1956;53.482;10.238;2022-11-03T16:29:17;7.80;;;2.93;;
3881;SDS011;1956;53.482;10.238;2022-11-03T16:34:17;6.53;;;2.83;;
3881;SDS011;1956;53.482;10.238;2022-11-03T16:39:18;8.77;;;3.23;;
3881;SDS011;1956;53.482;10.238;2022-11-03T16:44:18;7.50;;;3.30;;
3881;SDS011;1956;53.482;10.238;2022-11-03T16:49:18;8.63;;;2.83;;
3881;SDS011;1956;53.482;10.238;2022-11-03T16:54:19;9.70;;;3.27;;
3881;SDS011;1956;53.482;10.238;2022-11-03T16:59:19;7.60;;;2.67;;
3881;SDS011;1956;53.482;10.238;2022-11-03T17:04:23;6.37;;;2.80;;
3881;SDS011;1956;53.482;10.238;2022-11-03T17:09:24;10.23;;;3.60;;
3881;SDS011;1956;53.482;10.238;2022-11-03T17:14:24;7.73;;;3.00;;
3881;SDS011;1956;53.482;10.238;2022-11-03T17:19:24;16.57;;;3.83;;
3881;SDS011;1956;53.482;10.238;2022-11-03T17:24:25;5.73;;;2.87;;
3881;SDS011;1956;53.482;10.238;2022-11-03T17:29:36;12.93;;;3.43;;
3881;SDS011;1956;53.482;10.238;2022-11-03T17:34:38;5.43;;;2.90;;
3881;SDS011;1956;53.482;10.238;2022-11-03T17:39:39;6.90;;;3.70;;
3881;SDS011;1956;53.482;10.238;2022-11-03T17:44:41;7.17;;;2.67;;
3881;SDS011;1956;53.482;10.238;2022-11-03T17:49:42;9.83;;;2.93;;
3881;SDS011;1956;53.482;10.238;2022-11-03T17:54:43;11.80;;;3.03;;
3881;SDS011;1956;53.482;10.238;2022-11-03T17:59:44;8.10;;;3.50;;
3881;SDS011;1956;53.482;10.238;2022-11-03T18:04:46;8.20;;;2.73;;
3881;SDS011;1956;53.482;10.238;2022-11-03T18:09:46;6.63;;;2.90;;
3881;SDS011;1956;53.482;10.238;2022-11-03T18:14:47;8.90;;;3.23;;
3881;SDS011;1956;53.482;10.238;2022-11-03T18:19:47;12.70;;;2.60;;
3881;SDS011;1956;53.482;10.238;2022-11-03T18:24:48;4.90;;;2.60;;
3881;SDS011;1956;53.482;10.238;2022-11-03T18:29:50;8.27;;;2.67;;
3881;SDS011;1956;53.482;10.238;2022-11-03T18:34:50;7.30;;;2.73;;
3881;SDS011;1956;53.482;10.238;2022-11-03T18:39:51;4.10;;;2.40;;
3881;SDS011;1956;53.482;10.238;2022-11-03T18:44:51;7.37;;;2.70;;
3881;SDS011;1956;53.482;10.238;2022-11-03T18:49:52;14.00;;;3.17;;
3881;SDS011;1956;53.482;10.238;2022-11-03T18:54:52;4.47;;;2.57;;
3881;SDS011;1956;53.482;10.238;2022-11-03T18:59:53;13.13;;;3.30;;
3881;SDS011;1956;53.482;10.238;2022-11-03T19:04:53;12.27;;;2.43;;
3881;SDS011;1956;53.482;10.238;2022-11-03T19:09:53;9.57;;;2.97;;
3881;SDS011;1956;53.482;10.238;2022-11-03T19:14:54;8.43;;;2.87;;
3881;SDS011;1956;53.482;10.238;2022-11-03T19:19:54;7.30;;;2.83;;
3881;SDS011;1956;53.482;10.238;2022-11-03T19:24:55;7.43;;;2.40;;
3881;SDS011;1956;53.482;10.238;2022-11-03T19:29:56;5.87;;;2.60;;
3881;SDS011;1956;53.482;10.238;2022-11-03T19:40:19;6.30;;;2.50;;
3881;SDS011;1956;53.482;10.238;2022-11-03T19:45:19;4.17;;;2.53;;
3881;SDS011;1956;53.482;10.238;2022-11-03T19:50:31;8.60;;;3.00;;
3881;SDS011;1956;53.482;10.238;2022-11-03T19:55:33;7.53;;;2.53;;
3881;SDS011;1956;53.482;10.238;2022-11-03T20:00:34;9.40;;;2.53;;
3881;SDS011;1956;53.482;10.238;2022-11-03T20:05:35;11.20;;;2.93;;
3881;SDS011;1956;53.482;10.238;2022-11-03T20:10:35;9.00;;;2.67;;
3881;SDS011;1956;53.482;10.238;2022-11-03T20:15:36;10.43;;;3.10;;
3881;SDS011;1956;53.482;10.238;2022-11-03T20:20:36;8.63;;;3.10;;
3881;SDS011;1956;53.482;10.238;2022-11-03T20:25:37;8.50;;;3.10;;
3881;SDS011;1956;53.482;10.238;2022-11-03T20:30:38;6.43;;;3.03;;
3881;SDS011;1956;53.482;10.238;2022-11-03T20:35:38;6.87;;;2.70;;
3881;SDS011;1956;53.482;10.238;2022-11-03T20:40:39;7.13;;;2.43;;
3881;SDS011;1956;53.482;10.238;2022-11-03T20:45:39;5.73;;;2.90;;
3881;SDS011;1956;53.482;10.238;2022-11-03T20:50:40;4.30;;;2.57;;
3881;SDS011;1956;53.482;10.238;2022-11-03T20:55:40;7.13;;;2.47;;
3881;SDS011;1956;53.482;10.238;2022-11-03T21:00:41;11.37;;;3.07;;
3881;SDS011;1956;53.482;10.238;2022-11-03T21:05:42;6.93;;;3.40;;
3881;SDS011;1956;53.482;10.238;2022-11-03T21:10:43;11.23;;;3.17;;
3881;SDS011;1956;53.482;10.238;2022-11-03T21:15:44;7.30;;;2.63;;
3881;SDS011;1956;53.482;10.238;2022-11-03T21:21:04;7.43;;;3.63;;
3881;SDS011;1956;53.482;10.238;2022-11-03T21:26:05;9.80;;;2.90;;
3881;SDS011;1956;53.482;10.238;2022-11-03T21:31:10;6.80;;;3.03;;
3881;SDS011;1956;53.482;10.238;2022-11-03T21:36:12;7.63;;;3.30;;
3881;SDS011;1956;53.482;10.238;2022-11-03T21:41:12;4.07;;;3.20;;
3881;SDS011;1956;53.482;10.238;2022-11-03T21:46:31;7.07;;;4.07;;
3881;SDS011;1956;53.482;10.238;2022-11-03T21:51:31;9.47;;;3.40;;
3881;SDS011;1956;53.482;10.238;2022-11-03T21:56:32;8.67;;;4.00;;
3881;SDS011;1956;53.482;10.238;2022-11-03T22:01:32;16.20;;;3.67;;
3881;SDS011;1956;53.482;10.238;2022-11-03T22:06:32;12.20;;;4.23;;
3881;SDS011;1956;53.482;10.238;2022-11-03T22:11:33;10.23;;;3.70;;
3881;SDS011;1956;53.482;10.238;2022-11-03T22:16:33;8.57;;;4.23;;
3881;SDS011;1956;53.482;10.238;2022-11-03T22:21:37;13.73;;;3.57;;
3881;SDS011;1956;53.482;10.238;2022-11-03T22:26:55;8.23;;;4.23;;
3881;SDS011;1956;53.482;10.238;2022-11-03T22:31:56;8.50;;;3.80;;
3881;SDS011;1956;53.482;10.238;2022-11-03T22:36:56;5.07;;;2.80;;
3881;SDS011;1956;53.482;10.238;2022-11-03T22:41:57;6.60;;;3.73;;
3881;SDS011;1956;53.482;10.238;2022-11-03T22:47:15;9.67;;;4.20;;
3881;SDS011;1956;53.482;10.238;2022-11-03T22:52:16;13.73;;;4.57;;
3881;SDS011;1956;53.482;10.238;2022-11-03T22:57:16;9.03;;;3.43;;
3881;SDS011;1956;53.482;10.238;2022-11-03T23:02:17;10.67;;;3.73;;
3881;SDS011;1956;53.482;10.238;2022-11-03T23:07:17;12.20;;;4.37;;
3881;SDS011;1956;53.482;10.238;2022-11-03T23:12:17;7.70;;;4.47;;
3881;SDS011;1956;53.482;10.238;2022-11-03T23:17:18;7.80;;;4.00;;
3881;SDS011;1956;53.482;10.238;2022-11-03T23:22:18;7.33;;;3.60;;
3881;SDS011;1956;53.482;10.238;2022-11-03T23:27:18;11.80;;;3.70;;
3881;SDS011;1956;53.482;10.238;2022-11-03T23:32:19;11.37;;;4.57;;
3881;SDS011;1956;53.482;10.238;2022-11-03T23:37:19;8.40;;;4.13;;
3881;SDS011;1956;53.482;10.238;2022-11-03T23:42:20;11.67;;;3.80;;
3881;SDS011;1956;53.482;10.238;2022-11-03T23:47:20;12.13;;;4.43;;
3881;SDS011;1956;53.482;10.238;2022-11-03T23:52:39;6.57;;;3.90;;
3881;SDS011;1956;53.482;10.238;2022-11-03T23:57:40;22.83;;;4.93;;
